Time;durP1;ratioP1;P1;durP2;ratioP2;P2;SDS_P1;SDS_P2;PMS_P1;PMS_P2;Temp;Humidity;BMP_temperature;BMP_pressure;BME280_temperature;BME280_humidity;BME280_pressure;Samples;Min_cycle;Max_cycle;Signal;HPM_P1;HPM_P2
2023/05/01 00:00:05;;;;;;;18.23;7.47;;;;;;;15.93;60.89;99431.28;5090960;28;20495;-77
2023/05/01 00:02:30;;;;;;;6.40;5.80;;;;;;;15.73;60.62;99411.94;5090893;28;20027;-78
2023/05/01 00:04:56;;;;;;;7.68;6.82;;;;;;;15.82;61.16;99447.94;5092459;28;20024;-76
2023/05/01 00:07:21;;;;;;;8.90;5.40;;;;;;;15.53;61.09;99396.84;5094502;28;20054;-77
2023/05/01 00:09:47;;;;;;;13.00;9.20;;;;;;;15.38;61.24;99372.38;5094422;28;20035;-76
2023/05/01 00:12:13;;;;;;;10.07;8.50;;;;;;;15.39;61.09;99376.69;5094312;28;20023;-76
2023/05/01 00:14:38;;;;;;;21.95;5.85;;;;;;;15.56;60.74;99407.06;5094434;28;20028;-77
2023/05/01 00:17:05;;;;;;;6.32;5.05;;;;;;;15.50;60.58;99407.09;5094221;28;20030;-76
2023/05/01 00:19:30;;;;;;;5.85;5.25;;;;;;;15.47;60.74;99428.81;5094154;28;20020;-78
2023/05/01 00:21:56;;;;;;;8.02;6.03;;;;;;;15.12;60.70;99377.84;5093976;28;20050;-76
2023/05/01 00:24:21;;;;;;;11.88;6.43;;;;;;;15.42;60.66;99429.47;5093914;28;20032;-77
2023/05/01 00:26:47;;;;;;;28.10;9.50;;;;;;;15.48;60.77;99457.06;5093884;28;20051;-77
2023/05/01 00:29:12;;;;;;;10.65;6.05;;;;;;;15.22;60.85;99426.06;5093935;28;20028;-77
2023/05/01 00:31:39;;;;;;;6.10;4.72;;;;;;;15.27;61.18;99444.88;5094088;28;20027;-77
2023/05/01 00:34:05;;;;;;;5.05;4.55;;;;;;;15.49;60.88;99501.25;5094179;28;20112;-76
2023/05/01 00:36:30;;;;;;;92.53;23.83;;;;;;;15.34;60.38;99466.94;5093999;28;20032;-77
2023/05/01 00:38:56;;;;;;;10.93;6.43;;;;;;;15.34;60.07;99487.41;5094135;28;20044;-76
2023/05/01 00:41:21;;;;;;;5.93;5.43;;;;;;;14.98;60.27;99454.19;5094116;28;20072;-77
2023/05/01 00:43:47;;;;;;;52.33;12.68;;;;;;;15.18;60.27;99501.97;5092860;28;20028;-76
2023/05/01 00:46:12;;;;;;;17.25;7.65;;;;;;;15.10;60.56;99502.22;5093609;28;20028;-78
2023/05/01 00:48:38;;;;;;;6.90;5.60;;;;;;;14.84;60.26;99456.00;5093517;28;20565;-77
2023/05/01 00:51:06;;;;;;;7.18;6.10;;;;;;;14.98;60.38;99488.75;5093614;28;20523;-76
2023/05/01 00:53:34;;;;;;;21.40;8.45;;;;;;;14.89;60.23;99482.00;5093527;28;20036;-77
2023/05/01 00:56:00;;;;;;;12.95;7.10;;;;;;;14.54;60.20;99450.34;5092288;28;20031;-77
2023/05/01 00:58:26;;;;;;;7.07;6.32;;;;;;;14.90;60.29;99491.63;5093666;28;20166;-76
2023/05/01 01:00:52;;;;;;;40.65;11.75;;;;;;;14.66;60.38;99463.81;5093450;28;20019;-77
2023/05/01 01:03:18;;;;;;;37.50;10.98;;;;;;;14.94;60.18;99506.13;5093581;28;20032;-76
2023/05/01 01:05:56;;;;;;;22.95;8.93;;;;;;;14.78;60.58;99487.91;5093605;28;20028;-77
2023/05/01 01:08:47;;;;;;;6.30;5.68;;;;;;;14.86;60.77;99501.84;5092564;28;20024;-76
2023/05/01 01:11:13;;;;;;;7.78;6.20;;;;;;;14.84;60.36;99495.88;5093740;28;20032;-76
2023/05/01 01:13:49;;;;;;;6.70;6.10;;;;;;;14.51;60.19;99447.28;5093127;28;20496;-76
2023/05/01 01:16:18;;;;;;;8.35;6.38;;;;;;;14.85;60.49;99513.47;5092511;28;20115;-76
2023/05/01 01:18:55;;;;;;;7.20;6.15;;;;;;;14.85;60.54;99510.81;5092887;28;20479;-77
2023/05/01 01:21:23;;;;;;;10.57;6.38;;;;;;;14.90;60.38;99504.91;5093008;28;20036;-76
2023/05/01 01:24:07;;;;;;;6.22;5.72;;;;;;;14.88;60.75;99504.31;5093011;28;20120;-77
2023/05/01 01:26:48;;;;;;;6.65;5.95;;;;;;;14.75;60.56;99486.50;5092960;28;20063;-76
2023/05/01 01:29:25;;;;;;;6.53;5.88;;;;;;;14.94;60.65;99506.13;5092940;28;20031;-76
2023/05/01 01:31:57;;;;;;;9.63;6.72;;;;;;;14.97;60.60;99507.56;5093057;28;20031;-77
2023/05/01 01:34:38;;;;;;;7.10;6.40;;;;;;;14.94;60.72;99498.97;5092804;28;20027;-76
2023/05/01 01:37:12;;;;;;;7.45;6.70;;;;;;;14.44;60.39;99420.72;5092693;28;20462;-77
2023/05/01 01:40:01;;;;;;;6.57;5.97;;;;;;;14.95;60.87;99494.47;5092741;28;20020;-78
2023/05/01 01:42:36;;;;;;;22.00;8.98;;;;;;;14.82;60.78;99481.16;5092737;28;20035;-78
2023/05/01 01:45:11;;;;;;;8.65;6.15;;;;;;;14.62;60.70;99447.47;5092876;28;20024;-77
2023/05/01 01:47:40;;;;;;;82.82;18.75;;;;;;;14.62;60.71;99438.69;5092697;28;20416;-76
2023/05/01 01:50:09;;;;;;;9.77;7.05;;;;;;;14.57;60.68;99422.53;5092513;28;20086;-76
2023/05/01 01:52:36;;;;;;;7.22;6.60;;;;;;;14.91;60.54;99466.66;5092837;28;20016;-76
2023/05/01 01:55:08;;;;;;;11.05;6.75;;;;;;;14.72;60.60;99430.28;5092469;28;20032;-78
2023/05/01 01:57:36;;;;;;;7.90;6.93;;;;;;;15.08;60.83;99493.63;5092420;28;20031;-76
2023/05/01 02:00:04;;;;;;;12.77;7.60;;;;;;;14.58;60.84;99410.88;5092154;28;20095;-78
2023/05/01 02:02:30;;;;;;;8.73;7.88;;;;;;;14.93;60.56;99476.06;5092113;28;20020;-78
2023/05/01 02:04:58;;;;;;;8.52;7.78;;;;;;;14.59;60.96;99421.31;5092095;28;20035;-76
2023/05/01 02:07:25;;;;;;;8.90;7.47;;;;;;;14.68;60.96;99429.06;5090896;28;20120;-76
2023/05/01 02:09:53;;;;;;;8.77;7.72;;;;;;;15.14;60.74;99487.47;5092034;28;20028;-77
2023/05/01 02:12:20;;;;;;;10.55;8.57;;;;;;;14.71;60.74;99418.03;5092148;28;20089;-76
2023/05/01 02:14:47;;;;;;;8.43;7.65;;;;;;;15.27;60.76;99514.03;5092113;28;20039;-76
2023/05/01 02:17:14;;;;;;;8.10;7.32;;;;;;;14.85;60.85;99441.69;5091952;28;20054;-77
2023/05/01 02:19:42;;;;;;;8.45;7.50;;;;;;;14.79;60.77;99439.06;5090684;28;20016;-77
2023/05/01 02:22:10;;;;;;;8.55;7.70;;;;;;;14.66;61.04;99426.63;5092118;28;20393;-76
2023/05/01 02:24:38;;;;;;;9.93;7.95;;;;;;;15.17;60.83;99530.41;5092016;28;20095;-76
2023/05/01 02:27:08;;;;;;;8.40;7.63;;;;;;;15.07;61.21;99499.97;5091568;28;20047;-76
2023/05/01 02:29:34;;;;;;;198.70;44.97;;;;;;;14.49;61.06;99410.28;5091659;28;20024;-76
2023/05/01 02:32:00;;;;;;;10.90;8.45;;;;;;;14.57;61.30;99439.28;5091862;28;20024;-78
2023/05/01 02:34:25;;;;;;;9.95;8.95;;;;;;;14.78;61.12;99483.44;5091725;28;20137;-77
2023/05/01 02:36:51;;;;;;;11.95;9.32;;;;;;;14.76;60.98;99471.38;5091505;28;20055;-76
2023/05/01 02:39:16;;;;;;;74.65;20.80;;;;;;;14.61;61.03;99450.34;5090270;28;20020;-76
2023/05/01 02:41:44;;;;;;;24.27;9.65;;;;;;;14.51;61.02;99450.75;5091657;28;20058;-77
2023/05/01 02:44:11;;;;;;;22.98;9.52;;;;;;;14.80;61.22;99501.81;5091649;28;20453;-77
2023/05/01 02:46:42;;;;;;;8.90;8.00;;;;;;;14.86;61.00;99514.28;5091576;28;20048;-77
2023/05/01 02:49:09;;;;;;;9.05;8.15;;;;;;;14.88;61.14;99522.91;5091472;28;20056;-76
2023/05/01 02:51:36;;;;;;;8.18;7.38;;;;;;;14.62;61.16;99479.34;5091609;28;20103;-76
2023/05/01 02:54:02;;;;;;;8.23;7.50;;;;;;;15.02;61.42;99552.94;5091537;28;20054;-77
2023/05/01 02:56:28;;;;;;;11.80;8.45;;;;;;;14.75;61.58;99520.22;5091625;28;20032;-77
2023/05/01 02:58:54;;;;;;;10.60;8.07;;;;;;;14.98;61.51;99549.88;5091469;28;20032;-76
2023/05/01 03:01:19;;;;;;;30.35;9.23;;;;;;;14.96;61.60;99565.22;5091435;28;20488;-77
2023/05/01 03:03:45;;;;;;;8.65;7.80;;;;;;;14.96;61.60;99557.25;5091789;28;20030;-76
2023/05/01 03:06:13;;;;;;;11.10;8.43;;;;;;;14.64;62.03;99511.03;5091206;28;20550;-78
2023/05/01 03:08:38;;;;;;;10.80;8.57;;;;;;;14.78;61.78;99527.78;5091155;28;20493;-78
2023/05/01 03:11:07;;;;;;;10.27;8.90;;;;;;;14.92;62.12;99564.00;5091451;28;20023;-76
2023/05/01 03:13:33;;;;;;;9.40;7.75;;;;;;;14.49;62.17;99505.94;5090128;28;20115;-76
2023/05/01 03:15:58;;;;;;;10.23;8.98;;;;;;;14.83;62.09;99563.38;5091209;28;20055;-77
2023/05/01 03:18:24;;;;;;;10.98;8.45;;;;;;;14.78;61.66;99581.78;5089933;28;20063;-76
2023/05/01 03:20:53;;;;;;;11.25;8.45;;;;;;;14.73;61.93;99581.56;5091263;28;20464;-76
2023/05/01 03:23:19;;;;;;;8.85;7.68;;;;;;;14.69;62.18;99579.50;5091214;28;20088;-76
2023/05/01 03:25:45;;;;;;;11.35;8.25;;;;;;;14.35;61.87;99530.81;5091211;28;20052;-77
2023/05/01 03:28:10;;;;;;;10.45;7.68;;;;;;;14.55;62.09;99566.22;5091230;28;20024;-77
2023/05/01 03:30:35;;;;;;;10.90;7.22;;;;;;;14.10;61.91;99501.34;5091098;28;20035;-76
2023/05/01 03:33:01;;;;;;;11.68;8.70;;;;;;;14.25;62.07;99517.13;5091169;28;20051;-77
2023/05/01 03:35:26;;;;;;;10.77;8.43;;;;;;;14.47;61.64;99566.41;5091243;28;20055;-76
2023/05/01 03:37:52;;;;;;;9.85;8.20;;;;;;;14.49;61.74;99553.75;5091220;28;20487;-76
2023/05/01 03:40:18;;;;;;;12.57;8.30;;;;;;;14.24;61.59;99513.66;5094826;28;20518;-76
2023/05/01 03:42:43;;;;;;;9.10;8.05;;;;;;;14.35;61.94;99530.00;5095228;28;20024;-76
2023/05/01 03:45:09;;;;;;;18.88;8.82;;;;;;;14.55;62.20;99584.81;5095046;28;20499;-77
2023/05/01 03:47:35;;;;;;;9.70;8.07;;;;;;;14.63;61.99;99591.78;5094931;28;20493;-76
2023/05/01 03:50:01;;;;;;;8.52;7.22;;;;;;;14.25;61.88;99533.06;5094772;28;20031;-77
2023/05/01 03:52:26;;;;;;;21.13;8.32;;;;;;;14.60;61.77;99593.00;5094894;28;20440;-76
2023/05/01 03:54:52;;;;;;;8.68;7.78;;;;;;;14.47;61.75;99561.09;5094789;28;20054;-77
2023/05/01 03:57:19;;;;;;;8.88;7.90;;;;;;;14.62;61.54;99590.13;5094707;28;20028;-76
2023/05/01 03:59:46;;;;;;;10.00;7.72;;;;;;;14.13;61.68;99519.56;5094698;28;20408;-76
2023/05/01 04:02:11;;;;;;;14.60;7.60;;;;;;;14.56;61.61;99580.31;5095023;28;20121;-76
2023/05/01 04:04:37;;;;;;;8.15;7.05;;;;;;;14.41;61.75;99561.06;5094597;28;20074;-76
2023/05/01 04:07:03;;;;;;;9.85;8.73;;;;;;;14.29;61.64;99548.38;5094570;28;20076;-76
2023/05/01 04:09:29;;;;;;;8.93;8.13;;;;;;;14.38;61.70;99564.94;5094506;28;20031;-77
2023/05/01 04:11:54;;;;;;;9.82;8.35;;;;;;;14.21;61.49;99537.94;5094337;28;20028;-77
2023/05/01 04:14:20;;;;;;;22.70;10.02;;;;;;;14.68;61.66;99607.94;5094337;28;20020;-77
2023/05/01 04:16:45;;;;;;;14.23;9.85;;;;;;;14.70;61.78;99607.72;5094366;28;20154;-76
2023/05/01 04:19:11;;;;;;;16.95;9.63;;;;;;;14.57;61.73;99588.09;5094370;28;20497;-77
2023/05/01 04:21:36;;;;;;;14.43;9.93;;;;;;;14.32;61.67;99552.47;5094356;28;20610;-76
2023/05/01 04:24:02;;;;;;;11.20;9.27;;;;;;;14.42;61.74;99557.38;5094267;28;20493;-77
2023/05/01 04:26:28;;;;;;;10.85;8.93;;;;;;;14.61;61.48;99594.63;5093833;28;20044;-76
2023/05/01 04:28:54;;;;;;;9.85;8.57;;;;;;;14.75;61.67;99618.56;5094092;28;20085;-77
2023/05/01 04:31:19;;;;;;;15.50;10.23;;;;;;;14.20;61.52;99548.78;5092928;28;20031;-76
2023/05/01 04:33:45;;;;;;;12.60;9.57;;;;;;;14.17;61.73;99542.03;5094383;28;20028;-76
2023/05/01 04:36:10;;;;;;;16.38;10.27;;;;;;;14.30;61.68;99563.28;5093978;28;20038;-76
2023/05/01 04:38:36;;;;;;;17.67;9.77;;;;;;;14.22;61.80;99555.50;5094033;28;20027;-76
2023/05/01 04:41:01;;;;;;;21.05;9.30;;;;;;;14.38;61.78;99575.56;5093912;28;20617;-77
2023/05/01 04:43:27;;;;;;;11.57;8.32;;;;;;;14.70;61.89;99647.59;5093971;28;20028;-76
2023/05/01 04:45:53;;;;;;;11.02;8.43;;;;;;;14.59;62.04;99617.13;5092507;28;20030;-76
2023/05/01 04:48:18;;;;;;;10.07;7.43;;;;;;;14.44;62.14;99597.88;5093605;28;20028;-77
2023/05/01 04:50:44;;;;;;;9.05;8.00;;;;;;;14.56;62.20;99615.69;5092512;28;20027;-76
2023/05/01 04:53:09;;;;;;;11.93;7.60;;;;;;;14.75;62.43;99653.94;5093773;28;20496;-77
2023/05/01 04:55:35;;;;;;;11.75;8.73;;;;;;;14.37;62.06;99579.25;5093581;28;20028;-76
2023/05/01 04:58:02;;;;;;;8.98;7.97;;;;;;;14.83;62.11;99639.63;5093579;28;20067;-77
2023/05/01 05:00:27;;;;;;;8.77;7.53;;;;;;;14.87;62.08;99644.38;5093559;28;20502;-77
2023/05/01 05:02:53;;;;;;;9.50;7.80;;;;;;;15.00;61.69;99656.03;5093650;28;20028;-77
2023/05/01 05:05:18;;;;;;;10.43;7.65;;;;;;;15.06;61.71;99652.56;5093432;28;20501;-77
2023/05/01 05:07:44;;;;;;;7.78;7.05;;;;;;;14.93;61.78;99632.91;5093461;28;20073;-75
2023/05/01 05:10:09;;;;;;;10.18;7.43;;;;;;;14.63;61.43;99584.63;5093224;28;20028;-77
2023/05/01 05:12:35;;;;;;;8.90;6.93;;;;;;;15.19;61.26;99660.53;5093168;28;20409;-78
2023/05/01 05:15:00;;;;;;;12.70;7.72;;;;;;;14.74;61.38;99600.97;5093142;28;20035;-77
2023/05/01 05:17:26;;;;;;;9.32;7.32;;;;;;;15.06;61.36;99632.09;5093201;28;20522;-76
2023/05/01 05:19:51;;;;;;;7.47;6.88;;;;;;;15.06;61.37;99629.44;5093186;28;20028;-77
2023/05/01 05:22:16;;;;;;;31.75;9.95;;;;;;;15.19;61.19;99649.91;5092860;28;20485;-77
2023/05/01 05:24:42;;;;;;;7.07;5.78;;;;;;;14.80;60.77;99581.56;5092886;28;20115;-77
2023/05/01 05:27:07;;;;;;;6.38;5.78;;;;;;;14.96;60.48;99605.09;5092752;28;20113;-78
2023/05/01 05:29:33;;;;;;;6.25;5.65;;;;;;;15.09;60.04;99629.03;5092900;28;20099;-77
2023/05/01 05:31:59;;;;;;;6.72;5.90;;;;;;;14.93;60.05;99578.94;5093238;28;20030;-77
2023/05/01 05:34:25;;;;;;;11.82;5.88;;;;;;;15.24;60.33;99613.69;5093070;28;20479;-77
2023/05/01 05:36:50;;;;;;;5.97;5.40;;;;;;;15.40;60.20;99641.69;5092796;28;20035;-77
2023/05/01 05:39:16;;;;;;;38.13;10.40;;;;;;;15.63;59.86;99673.25;5092624;28;20523;-76
2023/05/01 05:41:42;;;;;;;16.55;7.15;;;;;;;15.69;59.62;99676.91;5091650;28;20048;-77
2023/05/01 05:44:07;;;;;;;6.57;5.60;;;;;;;15.26;59.52;99611.63;5092779;28;20063;-77
2023/05/01 05:46:33;;;;;;;7.15;6.07;;;;;;;15.51;58.86;99637.59;5091283;28;20107;-77
2023/05/01 05:48:58;;;;;;;7.80;5.53;;;;;;;15.42;58.86;99625.53;5092270;28;20023;-77
2023/05/01 05:51:23;;;;;;;5.53;4.90;;;;;;;15.19;59.03;99572.78;5092461;28;20394;-77
2023/05/01 05:53:49;;;;;;;4.70;4.22;;;;;;;15.32;58.43;99590.56;5092202;28;20152;-77
2023/05/01 05:56:14;;;;;;;5.78;5.28;;;;;;;15.47;58.30;99613.22;5091140;28;20030;-76
2023/05/01 05:58:40;;;;;;;4.85;4.45;;;;;;;15.99;58.42;99687.91;5092468;28;20024;-77
2023/05/01 06:01:08;;;;;;;6.20;4.68;;;;;;;16.02;58.13;99692.81;5092093;28;20103;-77
2023/05/01 06:03:35;;;;;;;6.25;4.50;;;;;;;16.10;57.89;99692.59;5091128;28;20051;-76
2023/05/01 06:06:00;;;;;;;38.40;8.98;;;;;;;15.55;57.81;99602.38;5092402;28;20030;-76
2023/05/01 06:08:26;;;;;;;12.05;5.90;;;;;;;16.21;57.45;99715.91;5092448;28;20107;-77
2023/05/01 06:10:52;;;;;;;32.22;8.07;;;;;;;16.00;57.76;99657.59;5092441;28;20056;-77
2023/05/01 06:13:17;;;;;;;27.05;7.15;;;;;;;16.23;57.62;99684.53;5091801;28;20420;-76
2023/05/01 06:15:43;;;;;;;7.05;4.93;;;;;;;15.98;57.27;99649.81;5092108;28;20028;-76
2023/05/01 06:18:09;;;;;;;35.15;11.35;;;;;;;16.33;57.19;99697.41;5092098;28;20016;-77
2023/05/01 06:20:34;;;;;;;10.65;6.03;;;;;;;16.40;56.95;99709.72;5092073;28;20463;-76
2023/05/01 06:23:00;;;;;;;6.28;4.53;;;;;;;15.81;57.27;99622.00;5091945;28;20466;-77
2023/05/01 06:25:25;;;;;;;7.57;5.10;;;;;;;16.23;57.12;99684.53;5091690;28;20049;-76
2023/05/01 06:27:51;;;;;;;5.50;4.93;;;;;;;16.16;57.16;99649.94;5092061;28;20035;-76
2023/05/01 06:30:18;;;;;;;6.15;5.15;;;;;;;16.56;57.14;99707.59;5091746;28;20491;-77
2023/05/01 06:32:45;;;;;;;5.78;5.28;;;;;;;16.11;56.96;99639.09;5091657;28;20047;-76
2023/05/01 06:35:11;;;;;;;6.82;5.55;;;;;;;16.45;56.95;99690.41;5091809;28;20024;-77
2023/05/01 06:37:37;;;;;;;9.90;6.22;;;;;;;16.39;56.66;99659.28;5090508;28;20415;-76
2023/05/01 06:40:09;;;;;;;5.20;4.70;;;;;;;16.42;56.70;99656.19;5091880;28;20035;-76
2023/05/01 06:42:39;;;;;;;8.98;6.03;;;;;;;16.97;56.96;99729.31;5091453;28;20415;-77
2023/05/01 06:45:06;;;;;;;7.93;4.90;;;;;;;16.52;56.82;99657.38;5091515;28;20020;-77
2023/05/01 06:47:31;;;;;;;6.60;5.20;;;;;;;16.58;56.92;99637.03;5091543;28;20492;-77
2023/05/01 06:49:56;;;;;;;6.75;5.30;;;;;;;17.24;56.83;99721.16;5091652;28;20034;-76
2023/05/01 06:52:22;;;;;;;6.32;4.65;;;;;;;17.01;56.97;99687.84;5091630;28;20035;-77
2023/05/01 06:54:47;;;;;;;5.78;4.20;;;;;;;17.13;57.11;99691.47;5091625;28;20459;-75
2023/05/01 06:57:13;;;;;;;12.40;5.80;;;;;;;17.47;56.69;99730.22;5091545;28;20056;-77
2023/05/01 06:59:39;;;;;;;59.63;14.65;;;;;;;17.50;56.37;99722.81;5091661;28;20477;-76
2023/05/01 07:02:04;;;;;;;15.43;4.88;;;;;;;17.21;56.21;99655.72;5091225;28;20512;-75
2023/05/01 07:04:30;;;;;;;19.55;6.82;;;;;;;17.63;55.99;99717.34;5091289;28;20081;-77
2023/05/01 07:06:55;;;;;;;5.43;3.97;;;;;;;17.40;55.64;99686.75;5090074;28;20035;-74
2023/05/01 07:09:21;;;;;;;78.63;17.45;;;;;;;17.76;55.13;99731.44;5091286;28;20028;-77
2023/05/01 07:11:46;;;;;;;4.43;3.40;;;;;;;17.63;54.87;99712.00;5091265;28;20051;-76
2023/05/01 07:14:12;;;;;;;6.13;3.90;;;;;;;17.63;54.97;99701.31;5093484;28;20034;-77
2023/05/01 07:16:37;;;;;;;3.67;3.28;;;;;;;17.33;54.76;99632.63;5095589;28;20021;-76
2023/05/01 07:19:02;;;;;;;6.72;3.83;;;;;;;17.74;53.97;99681.94;5094133;28;20058;-77
2023/05/01 07:21:28;;;;;;;8.85;4.93;;;;;;;17.96;53.36;99717.09;5095391;28;20424;-76
2023/05/01 07:23:54;;;;;;;5.82;3.55;;;;;;;18.28;53.18;99758.66;5095060;28;20023;-77
2023/05/01 07:26:19;;;;;;;3.33;2.70;;;;;;;18.07;52.03;99713.66;5095137;28;20101;-78
2023/05/01 07:28:44;;;;;;;36.25;7.70;;;;;;;18.17;51.32;99734.53;5095218;28;20508;-76
2023/05/01 07:31:10;;;;;;;78.10;15.90;;;;;;;17.90;51.02;99680.56;5095083;28;20056;-78
2023/05/01 07:33:36;;;;;;;63.85;11.80;;;;;;;18.27;51.22;99738.31;5095157;28;20028;-77
2023/05/01 07:36:02;;;;;;;33.33;6.38;;;;;;;18.24;51.36;99720.06;5095217;28;20028;-78
2023/05/01 07:38:27;;;;;;;13.55;5.30;;;;;;;18.63;51.33;99769.63;5093779;28;20026;-75
2023/05/01 07:40:53;;;;;;;22.58;5.30;;;;;;;18.64;50.81;99749.03;5094932;28;20020;-76
2023/05/01 07:43:18;;;;;;;13.00;4.30;;;;;;;18.56;50.19;99741.25;5093573;28;20413;-77
2023/05/01 07:45:56;;;;;;;3.28;2.50;;;;;;;18.84;50.02;99771.00;5094791;28;20051;-77
2023/05/01 07:48:21;;;;;;;33.85;9.65;;;;;;;18.84;49.79;99743.41;5094898;28;20055;-77
2023/05/01 07:50:47;;;;;;;4.63;3.30;;;;;;;18.66;49.03;99721.03;5094698;28;20586;-75
2023/05/01 07:53:12;;;;;;;3.10;2.75;;;;;;;18.70;49.01;99724.06;5093257;28;20031;-78
2023/05/01 07:55:38;;;;;;;32.97;7.38;;;;;;;19.04;48.85;99751.97;5094651;28;20508;-77
2023/05/01 07:58:03;;;;;;;20.95;6.20;;;;;;;19.26;48.47;99779.84;5094711;28;20016;-76
2023/05/01 08:00:29;;;;;;;5.13;2.90;;;;;;;18.51;48.45;99644.84;5093278;28;20117;-78
2023/05/01 08:02:54;;;;;;;15.70;4.05;;;;;;;19.40;48.37;99764.44;5094643;28;20058;-77
2023/05/01 08:05:20;;;;;;;56.22;10.88;;;;;;;19.33;48.13;99755.69;5094415;28;20466;-76
2023/05/01 08:07:45;;;;;;;3.53;2.72;;;;;;;19.50;47.89;99782.63;5093113;28;20056;-76
2023/05/01 08:10:11;;;;;;;2.88;2.67;;;;;;;18.98;47.74;99697.53;5094352;28;20533;-77
2023/05/01 08:12:36;;;;;;;29.02;7.80;;;;;;;19.43;47.63;99752.44;5094119;28;20028;-76
2023/05/01 08:15:01;;;;;;;10.18;3.88;;;;;;;19.59;46.72;99757.16;5094187;28;20080;-77
2023/05/01 08:17:27;;;;;;;15.45;5.13;;;;;;;19.63;46.70;99761.00;5094078;28;20511;-76
2023/05/01 08:19:55;;;;;;;129.77;27.20;;;;;;;19.89;46.21;99781.19;5094021;28;20496;-77
2023/05/01 08:22:22;;;;;;;13.15;4.70;;;;;;;19.55;45.92;99708.59;5093221;28;20032;-78
2023/05/01 08:24:48;;;;;;;3.55;2.95;;;;;;;19.81;45.92;99754.72;5093003;28;20028;-76
2023/05/01 08:27:13;;;;;;;66.50;14.90;;;;;;;19.70;45.77;99729.56;5093934;28;20579;-76
2023/05/01 08:29:39;;;;;;;5.40;3.85;;;;;;;20.17;45.82;99789.34;5093886;28;20117;-76
2023/05/01 08:32:04;;;;;;;5.57;3.90;;;;;;;19.85;45.96;99707.66;5093836;28;20030;-76
2023/05/01 08:34:30;;;;;;;68.63;13.55;;;;;;;20.39;45.66;99781.53;5093749;28;20024;-76
2023/05/01 08:36:55;;;;;;;33.05;9.38;;;;;;;19.87;45.39;99682.25;5093664;28;20057;-75
2023/05/01 08:39:21;;;;;;;14.63;4.82;;;;;;;20.46;45.12;99760.75;5093816;28;20024;-76
2023/05/01 08:41:47;;;;;;;3.22;2.92;;;;;;;20.35;44.71;99731.25;5093747;28;20027;-77
2023/05/01 08:44:16;;;;;;;74.20;17.63;;;;;;;20.54;44.82;99744.31;5093788;28;20028;-77
2023/05/01 08:46:52;;;;;;;22.02;6.80;;;;;;;20.76;44.67;99765.91;5092532;28;20028;-76
2023/05/01 08:49:20;;;;;;;6.10;3.60;;;;;;;20.76;44.56;99752.50;5093772;28;20024;-77
2023/05/01 08:51:47;;;;;;;3.75;3.33;;;;;;;21.11;44.51;99789.97;5093626;28;20028;-77
2023/05/01 08:54:14;;;;;;;15.25;5.78;;;;;;;21.30;44.46;99797.84;5093554;28;20024;-77
2023/05/01 08:56:42;;;;;;;7.35;4.00;;;;;;;21.38;44.35;99792.88;5093525;28;20560;-77
2023/05/01 08:59:09;;;;;;;7.57;4.38;;;;;;;21.33;43.48;99760.56;5093536;28;20028;-76
2023/05/01 09:01:36;;;;;;;79.70;17.50;;;;;;;21.54;43.43;99784.03;5093469;28;20566;-76
2023/05/01 09:04:05;;;;;;;30.70;8.25;;;;;;;21.27;43.86;99723.94;5093453;28;20036;-76
2023/05/01 09:06:31;;;;;;;6.22;4.78;;;;;;;21.62;43.75;99739.03;5093445;28;20140;-76
2023/05/01 09:08:58;;;;;;;6.05;3.97;;;;;;;21.96;43.42;99769.38;5093393;28;20041;-76
2023/05/01 09:11:23;;;;;;;12.35;4.78;;;;;;;22.07;42.98;99746.97;5092074;28;20032;-76
2023/05/01 09:13:50;;;;;;;13.43;5.75;;;;;;;22.23;42.90;99753.38;5093237;28;20028;-77
2023/05/01 09:16:16;;;;;;;9.98;4.30;;;;;;;22.15;42.80;99714.28;5093038;28;20115;-76
2023/05/01 09:18:41;;;;;;;4.65;3.03;;;;;;;22.48;42.20;99724.13;5093191;28;20527;-76
2023/05/01 09:21:07;;;;;;;5.82;3.13;;;;;;;22.62;41.52;99709.22;5093021;28;20048;-76
2023/05/01 09:23:34;;;;;;;8.18;3.67;;;;;;;23.20;41.04;99766.13;5093117;28;20028;-76
2023/05/01 09:26:03;;;;;;;4.53;2.85;;;;;;;23.26;40.61;99779.38;5092935;28;20048;-76
2023/05/01 09:28:41;;;;;;;3.33;2.90;;;;;;;23.30;39.61;99748.16;5092757;28;20023;-77
2023/05/01 09:31:20;;;;;;;22.52;6.82;;;;;;;23.23;39.23;99707.16;5092550;28;20024;-76
2023/05/01 09:33:59;;;;;;;15.80;4.10;;;;;;;23.77;38.74;99760.97;5092733;28;20035;-75
2023/05/01 09:36:30;;;;;;;5.85;3.65;;;;;;;23.73;38.39;99755.28;5091146;28;20032;-76
2023/05/01 09:39:00;;;;;;;37.95;7.63;;;;;;;23.66;37.63;99724.22;5092800;28;20031;-76
2023/05/01 09:41:26;;;;;;;4.68;3.10;;;;;;;23.92;37.93;99739.50;5091391;28;20028;-76
2023/05/01 09:43:54;;;;;;;11.75;3.72;;;;;;;24.23;37.36;99753.97;5091372;28;20076;-76
2023/05/01 09:46:21;;;;;;;4.50;2.60;;;;;;;24.38;37.55;99764.06;5092687;28;20590;-76
2023/05/01 09:49:02;;;;;;;49.92;11.65;;;;;;;24.48;34.96;99715.50;5092657;28;20501;-75
2023/05/01 09:51:27;;;;;;;2.33;2.13;;;;;;;24.77;35.27;99756.41;5092514;28;20023;-77
2023/05/01 09:53:57;;;;;;;8.13;4.60;;;;;;;24.47;34.41;99691.50;5089696;28;20408;-77
2023/05/01 09:56:25;;;;;;;19.27;4.80;;;;;;;24.49;34.03;99676.66;5072553;28;20401;-76
2023/05/01 09:58:51;;;;;;;6.25;3.95;;;;;;;24.84;33.58;99712.94;5072175;28;20408;-77
2023/05/01 10:01:17;;;;;;;5.00;2.67;;;;;;;25.18;33.09;99757.31;5072244;28;20091;-76
2023/05/01 10:03:44;;;;;;;8.48;3.03;;;;;;;25.42;32.98;99746.81;5072020;28;20082;-76
2023/05/01 10:06:09;;;;;;;3.33;2.80;;;;;;;25.52;32.54;99740.59;5071905;28;20020;-76
2023/05/01 10:08:49;;;;;;;4.15;2.50;;;;;;;25.49;32.29;99725.72;5071684;28;20025;-76
2023/05/01 10:11:15;;;;;;;3.80;3.00;;;;;;;25.22;31.88;99687.31;5071717;28;20029;-74
2023/05/01 10:13:40;;;;;;;11.18;3.45;;;;;;;25.62;31.78;99754.91;5071875;28;20103;-77
2023/05/01 10:16:26;;;;;;;6.97;3.25;;;;;;;25.69;30.50;99751.16;5071916;28;20063;-76
2023/05/01 10:18:53;;;;;;;4.72;3.05;;;;;;;25.54;30.21;99722.22;5070571;28;20020;-76
2023/05/01 10:21:19;;;;;;;13.55;3.65;;;;;;;25.96;30.31;99740.81;5071896;28;20024;-75
2023/05/01 10:23:44;;;;;;;8.25;3.45;;;;;;;25.86;30.69;99689.44;5071730;28;20504;-76
2023/05/01 10:26:13;;;;;;;4.85;2.97;;;;;;;26.53;30.41;99726.88;5071947;28;20039;-76
2023/05/01 10:28:40;;;;;;;24.17;5.95;;;;;;;26.60;29.87;99721.16;5071756;28;20023;-74
2023/05/01 10:31:06;;;;;;;5.60;3.30;;;;;;;26.54;29.80;99690.56;5070132;28;20029;-74
2023/05/01 10:33:31;;;;;;;15.70;4.75;;;;;;;26.89;30.38;99742.94;5071549;28;20055;-76
2023/05/01 10:35:59;;;;;;;4.28;3.40;;;;;;;26.77;30.53;99724.31;5071367;28;20099;-75
2023/05/01 10:38:31;;;;;;;12.20;5.30;;;;;;;26.89;30.62;99742.94;5071526;28;20044;-75
2023/05/01 10:40:56;;;;;;;20.27;6.22;;;;;;;25.74;31.07;99695.16;5071524;28;20028;-75
2023/05/01 10:43:29;;;;;;;5.28;3.00;;;;;;;25.59;31.57;99741.13;5071908;28;20024;-75
2023/05/01 10:46:06;;;;;;;5.47;3.38;;;;;;;25.03;32.39;99738.38;5071482;28;20033;-77
2023/05/01 10:48:44;;;;;;;9.48;3.72;;;;;;;24.67;32.88;99737.47;5070354;28;20031;-75
2023/05/01 10:51:16;;;;;;;10.52;5.78;;;;;;;25.00;32.36;99745.13;5071195;28;20056;-78
2023/05/01 10:53:42;;;;;;;6.95;5.68;;;;;;;25.24;31.73;99693.28;5071076;28;20028;-74
2023/05/01 10:56:20;;;;;;;16.40;5.53;;;;;;;25.80;31.51;99750.06;5071261;28;20016;-76
2023/05/01 10:58:50;;;;;;;24.02;5.70;;;;;;;25.52;31.84;99744.09;5071767;28;20518;-76
2023/05/01 11:01:32;;;;;;;10.75;4.57;;;;;;;25.08;32.40;99764.59;5071424;28;20021;-76
2023/05/01 11:04:26;;;;;;;20.75;5.85;;;;;;;24.67;32.46;99753.66;5071291;28;20029;-76
2023/05/01 11:07:04;;;;;;;5.45;3.67;;;;;;;24.13;33.09;99751.22;5069780;28;20048;-76
2023/05/01 11:09:45;;;;;;;4.80;3.53;;;;;;;23.74;33.44;99756.91;5071070;28;20504;-77
2023/05/01 11:12:12;;;;;;;4.32;3.38;;;;;;;23.88;32.95;99751.91;5071077;28;20033;-77
2023/05/01 11:14:54;;;;;;;13.57;4.43;;;;;;;24.66;32.59;99755.56;5070992;28;20085;-77
2023/05/01 11:17:38;;;;;;;;;;;;;;;25.17;32.08;99760.28;5070144;28;20036;-77
2023/05/01 11:20:04;;;;;;;6.70;4.10;;;;;;;24.99;31.81;99737.31;5070935;28;19908;-77
2023/05/01 11:22:33;;;;;;;5.13;3.67;;;;;;;25.34;31.70;99760.88;5071003;28;20029;-77
2023/05/01 11:25:03;;;;;;;14.45;5.13;;;;;;;25.01;31.72;99711.63;5071199;28;20036;-77
2023/05/01 11:27:30;;;;;;;28.73;4.57;;;;;;;25.61;31.15;99755.19;5069410;28;20052;-76
2023/05/01 11:29:57;;;;;;;8.18;4.38;;;;;;;25.91;30.60;99728.13;5070768;28;20027;-76